createdAt,value
2023-02-03T00:00:12.264Z,8.78
2023-02-03T00:02:41.780Z,8.94
2023-02-03T00:05:15.443Z,8.88
2023-02-03T00:07:45.015Z,8.81
2023-02-03T00:10:14.764Z,8.75
2023-02-03T00:12:44.358Z,8.78
2023-02-03T00:15:14.423Z,8.84
2023-02-03T00:17:46.533Z,8.93
2023-02-03T00:20:19.881Z,8.69
2023-02-03T00:22:50.102Z,8.81
2023-02-03T00:25:21.541Z,8.80
2023-02-03T00:27:51.375Z,8.90
2023-02-03T00:30:21.865Z,8.70
2023-02-03T00:32:52.901Z,8.81
2023-02-03T00:35:25.183Z,8.83
2023-02-03T00:37:58.034Z,8.76
2023-02-03T00:40:30.113Z,8.79
2023-02-03T00:42:59.724Z,8.81
2023-02-03T00:45:32.091Z,8.83
2023-02-03T00:48:02.201Z,8.69
2023-02-03T00:50:32.581Z,8.80
2023-02-03T00:53:02.463Z,7.96
2023-02-03T00:55:31.924Z,8.83
2023-02-03T00:58:02.454Z,8.83
2023-02-03T01:00:37.130Z,8.79
2023-02-03T01:03:07.070Z,8.86
2023-02-03T01:05:38.194Z,8.87
2023-02-03T01:08:07.926Z,8.77
2023-02-03T01:10:39.626Z,8.81
2023-02-03T01:13:09.335Z,8.81
2023-02-03T01:15:48.657Z,8.73
2023-02-03T01:18:18.635Z,8.85
2023-02-03T01:20:49.658Z,8.97
2023-02-03T01:23:19.190Z,8.52
2023-02-03T01:25:48.837Z,8.92
2023-02-03T01:28:19.411Z,8.90
2023-02-03T01:30:49.514Z,8.94
2023-02-03T01:33:19.528Z,8.71
2023-02-03T01:35:50.551Z,9.00
2023-02-03T01:38:20.288Z,9.01
2023-02-03T01:40:50.560Z,8.89
2023-02-03T01:43:36.247Z,9.02
2023-02-03T01:46:23.979Z,8.97
2023-02-03T01:48:57.746Z,9.02
2023-02-03T01:51:29.156Z,7.79
2023-02-03T01:53:59.713Z,9.00
2023-02-03T01:56:31.976Z,8.98
2023-02-03T01:59:02.072Z,9.06
2023-02-03T02:01:34.550Z,9.04
2023-02-03T02:04:08.177Z,8.91
2023-02-03T02:06:38.914Z,8.66
2023-02-03T02:09:12.416Z,8.95
2023-02-03T02:11:45.241Z,9.06
2023-02-03T02:14:15.281Z,9.11
2023-02-03T02:16:54.665Z,9.08
2023-02-03T02:19:59.954Z,9.06
2023-02-03T02:22:41.423Z,9.15
2023-02-03T02:25:26.752Z,8.81
2023-02-03T02:28:26.103Z,9.08
2023-02-03T02:31:35.098Z,9.05
2023-02-03T02:34:15.549Z,9.12
2023-02-03T02:36:58.407Z,8.83
2023-02-03T02:39:38.167Z,8.97
2023-02-03T02:42:17.276Z,9.09
2023-02-03T02:44:52.438Z,9.01
2023-02-03T02:47:25.214Z,8.77
2023-02-03T02:50:02.341Z,9.05
2023-02-03T02:52:38.618Z,9.08
2023-02-03T02:55:15.314Z,9.00
2023-02-03T02:57:49.381Z,8.92
2023-02-03T03:00:22.954Z,8.97
2023-02-03T03:02:54.482Z,8.96
2023-02-03T03:05:27.884Z,8.93
2023-02-03T03:08:03.240Z,9.09
2023-02-03T03:10:34.121Z,8.95
2023-02-03T03:13:06.897Z,9.19
2023-02-03T03:15:39.811Z,9.10
2023-02-03T03:18:15.780Z,9.07
2023-02-03T03:20:48.378Z,8.99
2023-02-03T03:23:25.359Z,9.04
2023-02-03T03:26:02.543Z,9.07
2023-02-03T03:28:39.708Z,8.99
2023-02-03T03:31:10.008Z,9.00
2023-02-03T03:33:41.197Z,8.09
2023-02-03T03:36:20.329Z,8.95
2023-02-03T03:38:56.985Z,9.11
2023-02-03T03:41:38.255Z,9.11
2023-02-03T03:44:13.978Z,9.07
2023-02-03T03:46:48.343Z,9.03
2023-02-03T03:49:21.615Z,8.99
2023-02-03T03:51:57.625Z,8.97
2023-02-03T03:54:29.092Z,8.96
2023-02-03T03:57:03.002Z,8.83
2023-02-03T03:59:37.416Z,8.86
2023-02-03T04:02:07.916Z,8.27
2023-02-03T04:04:41.706Z,8.84
2023-02-03T04:07:11.906Z,8.59
2023-02-03T04:09:43.104Z,9.03
2023-02-03T04:12:22.897Z,9.02
2023-02-03T04:14:52.705Z,8.88
2023-02-03T04:17:23.156Z,8.96
2023-02-03T04:19:55.530Z,9.05
2023-02-03T04:22:26.013Z,8.91
2023-02-03T04:24:58.923Z,9.04
2023-02-03T04:27:29.655Z,8.92
2023-02-03T04:30:00.315Z,8.93
2023-02-03T04:32:31.265Z,8.94
2023-02-03T04:35:03.833Z,9.02
2023-02-03T04:37:34.651Z,8.89
2023-02-03T04:40:07.009Z,9.11
2023-02-03T04:42:38.963Z,8.98
2023-02-03T04:45:10.635Z,8.84
2023-02-03T04:47:40.536Z,8.85
2023-02-03T04:50:11.796Z,9.04
2023-02-03T04:52:43.242Z,9.02
2023-02-03T04:55:15.829Z,8.91
2023-02-03T04:57:45.438Z,8.88
2023-02-03T05:00:16.187Z,8.91
2023-02-03T05:02:45.882Z,8.98
2023-02-03T05:05:16.386Z,8.91
2023-02-03T05:07:45.618Z,8.83
2023-02-03T05:10:18.321Z,8.91
2023-02-03T05:12:50.144Z,8.69
2023-02-03T05:15:22.427Z,8.67
2023-02-03T05:17:54.420Z,8.84
2023-02-03T05:20:26.554Z,8.88
2023-02-03T05:22:56.883Z,8.80
2023-02-03T05:25:26.413Z,8.91
2023-02-03T05:27:56.233Z,8.96
2023-02-03T05:30:29.709Z,8.88
2023-02-03T05:33:00.296Z,8.84
2023-02-03T05:35:33.582Z,8.88
2023-02-03T05:38:06.612Z,8.64
2023-02-03T05:40:53.496Z,8.90
2023-02-03T05:43:22.982Z,8.74
2023-02-03T05:45:53.105Z,8.77
2023-02-03T05:48:23.068Z,8.69
2023-02-03T05:50:53.776Z,8.78
2023-02-03T05:53:23.814Z,8.63
2023-02-03T05:55:56.041Z,8.61
2023-02-03T05:58:25.768Z,8.37
2023-02-03T06:00:56.174Z,8.70
2023-02-03T06:03:26.284Z,8.78
2023-02-03T06:05:59.007Z,8.51
2023-02-03T06:08:28.800Z,8.52
2023-02-03T06:11:01.660Z,8.69
2023-02-03T06:13:31.529Z,8.61
2023-02-03T06:16:03.735Z,8.60
2023-02-03T06:18:33.515Z,8.57
2023-02-03T06:21:04.717Z,8.64
2023-02-03T06:23:34.244Z,7.40
2023-02-03T06:26:03.596Z,8.54
2023-02-03T06:28:33.663Z,8.57
2023-02-03T06:31:03.759Z,8.61
2023-02-03T06:33:33.355Z,8.43
2023-02-03T06:36:07.000Z,8.31
2023-02-03T06:38:36.651Z,8.51
2023-02-03T06:41:06.605Z,8.68
2023-02-03T06:43:36.383Z,7.43
2023-02-03T06:46:06.511Z,8.58
2023-02-03T06:48:35.618Z,8.66
2023-02-03T06:51:07.512Z,8.57
2023-02-03T06:53:36.863Z,8.59
2023-02-03T06:56:06.711Z,8.60
2023-02-03T06:58:35.996Z,8.60
2023-02-03T07:01:06.113Z,8.19
2023-02-03T07:03:36.161Z,8.63
2023-02-03T07:06:07.943Z,8.67
2023-02-03T07:08:41.487Z,8.61
2023-02-03T07:11:11.027Z,8.67
2023-02-03T07:13:40.601Z,8.69
2023-02-03T07:16:10.721Z,8.62
2023-02-03T07:18:48.166Z,8.60
2023-02-03T07:21:19.643Z,8.62
2023-02-03T07:23:49.717Z,8.59
2023-02-03T07:26:23.085Z,8.63
2023-02-03T07:28:53.509Z,8.61
2023-02-03T07:31:23.769Z,8.71
2023-02-03T07:33:53.233Z,8.72
2023-02-03T07:36:24.985Z,8.65
2023-02-03T07:38:54.231Z,7.67
2023-02-03T07:41:23.747Z,8.74
2023-02-03T07:43:53.222Z,8.65
2023-02-03T07:46:22.853Z,8.50
2023-02-03T07:48:52.332Z,8.45
2023-02-03T07:51:23.486Z,8.74
2023-02-03T07:53:53.013Z,8.76
2023-02-03T07:56:22.823Z,8.65
2023-02-03T07:58:54.463Z,8.67
2023-02-03T08:01:24.521Z,8.66
2023-02-03T08:03:55.347Z,8.75
2023-02-03T08:06:26.186Z,8.86
2023-02-03T08:08:55.846Z,8.72
2023-02-03T08:11:28.634Z,8.81
2023-02-03T08:14:00.611Z,8.69
2023-02-03T08:16:30.302Z,8.78
2023-02-03T08:19:00.109Z,7.65
2023-02-03T08:21:31.567Z,8.85
2023-02-03T08:24:01.330Z,8.76
2023-02-03T08:26:30.917Z,8.82
2023-02-03T08:29:00.786Z,8.83
2023-02-03T08:31:30.235Z,8.81
2023-02-03T08:34:00.459Z,8.79
2023-02-03T08:36:31.090Z,8.87
2023-02-03T08:39:03.671Z,8.84
2023-02-03T08:41:33.455Z,8.87
2023-02-03T08:44:02.859Z,8.85
2023-02-03T08:46:32.287Z,8.80
2023-02-03T08:49:02.992Z,8.86
2023-02-03T08:51:33.764Z,9.03
2023-02-03T08:54:03.272Z,9.05
2023-02-03T08:56:34.345Z,9.05
2023-02-03T08:59:03.595Z,9.05
2023-02-03T09:01:32.920Z,9.03
2023-02-03T09:04:04.157Z,9.03
2023-02-03T09:06:34.683Z,8.96
2023-02-03T09:09:04.300Z,8.97
2023-02-03T09:11:33.828Z,7.69
2023-02-03T09:14:03.205Z,9.04
2023-02-03T09:16:33.077Z,8.17
2023-02-03T09:19:02.555Z,9.09
2023-02-03T09:21:35.111Z,9.08
2023-02-03T09:24:12.391Z,9.21
2023-02-03T09:26:41.792Z,9.01
2023-02-03T09:29:13.504Z,9.18
2023-02-03T09:31:42.912Z,9.27
2023-02-03T09:34:12.288Z,9.21
2023-02-03T09:36:43.049Z,9.29
2023-02-03T09:39:14.050Z,9.23
2023-02-03T09:42:26.108Z,9.38
2023-02-03T09:45:07.133Z,9.33
2023-02-03T09:47:38.863Z,9.32
2023-02-03T09:50:13.208Z,9.35
2023-02-03T09:52:44.465Z,9.21
2023-02-03T09:55:28.410Z,9.29
2023-02-03T09:58:04.856Z,9.36
2023-02-03T10:00:37.649Z,9.17
2023-02-03T10:03:15.836Z,9.39
2023-02-03T10:05:58.027Z,9.31
2023-02-03T10:08:44.032Z,9.26
2023-02-03T10:11:26.331Z,9.37
2023-02-03T10:14:07.266Z,9.30
2023-02-03T10:16:48.587Z,9.38
2023-02-03T10:19:23.532Z,9.38
2023-02-03T10:21:56.160Z,9.38
2023-02-03T10:24:31.793Z,9.45
2023-02-03T10:27:02.450Z,9.50
2023-02-03T10:29:37.367Z,9.36
2023-02-03T10:32:10.670Z,9.46
2023-02-03T10:34:46.425Z,9.46
2023-02-03T10:37:24.787Z,9.52
2023-02-03T10:39:59.062Z,9.22
2023-02-03T10:42:49.292Z,9.42
2023-02-03T10:45:19.139Z,9.32
2023-02-03T10:47:53.084Z,9.55
2023-02-03T10:50:25.025Z,9.25
2023-02-03T10:53:19.077Z,9.57
2023-02-03T10:55:51.685Z,9.22
2023-02-03T10:58:28.359Z,9.66
2023-02-03T11:01:00.534Z,9.33
2023-02-03T11:03:30.520Z,9.71
2023-02-03T11:06:11.704Z,9.64
2023-02-03T11:08:42.747Z,9.70
2023-02-03T11:11:16.359Z,9.63
2023-02-03T11:13:46.804Z,9.69
2023-02-03T11:16:20.344Z,9.64
2023-02-03T11:19:00.332Z,9.72
2023-02-03T11:21:33.125Z,9.72
2023-02-03T11:24:06.369Z,9.55
2023-02-03T11:26:37.125Z,9.72
2023-02-03T11:29:15.184Z,9.69
2023-02-03T11:31:49.790Z,9.77
2023-02-03T11:34:21.121Z,9.73
2023-02-03T11:36:50.957Z,9.68
2023-02-03T11:39:28.116Z,9.71
2023-02-03T11:41:57.518Z,9.78
2023-02-03T11:44:31.140Z,9.76
2023-02-03T11:47:05.635Z,9.79
2023-02-03T11:50:11.931Z,9.74
2023-02-03T11:52:58.709Z,9.60
2023-02-03T11:55:40.408Z,9.58
2023-02-03T11:58:24.781Z,9.75
2023-02-03T12:01:02.346Z,9.82
2023-02-03T12:03:59.138Z,9.65
2023-02-03T12:06:47.746Z,9.86
2023-02-03T12:09:29.937Z,9.75
2023-02-03T12:12:30.755Z,9.85
2023-02-03T12:15:14.443Z,9.77
2023-02-03T12:17:53.564Z,9.52
2023-02-03T12:20:40.702Z,9.40
2023-02-03T12:23:21.306Z,9.63
2023-02-03T12:26:05.276Z,9.63
2023-02-03T12:28:47.103Z,9.44
2023-02-03T12:31:25.018Z,9.79
2023-02-03T12:34:01.838Z,9.79
2023-02-03T12:36:38.725Z,9.60
2023-02-03T12:39:15.956Z,9.80
2023-02-03T12:41:51.921Z,9.79
2023-02-03T12:44:27.318Z,9.75
2023-02-03T12:47:04.904Z,9.71
2023-02-03T12:49:43.417Z,9.62
2023-02-03T12:52:22.703Z,9.85
2023-02-03T12:55:01.255Z,9.58
2023-02-03T12:57:39.329Z,9.79
2023-02-03T13:00:20.433Z,9.42
2023-02-03T13:03:06.429Z,9.66
2023-02-03T13:05:43.869Z,9.57
2023-02-03T13:08:22.145Z,9.52
2023-02-03T13:10:56.407Z,9.57
2023-02-03T13:13:36.273Z,9.41
2023-02-03T13:16:10.973Z,9.29
2023-02-03T13:18:44.174Z,9.26
2023-02-03T13:21:14.794Z,9.01
2023-02-03T13:23:48.550Z,9.20
2023-02-03T13:26:41.479Z,9.29
2023-02-03T13:29:36.430Z,9.17
2023-02-03T13:32:18.739Z,9.11
2023-02-03T13:35:16.507Z,9.06
2023-02-03T13:38:29.492Z,9.17
2023-02-03T13:41:07.544Z,9.25
2023-02-03T13:43:40.025Z,9.06
2023-02-03T13:46:19.191Z,9.06
2023-02-03T13:48:48.954Z,9.09
2023-02-03T13:51:21.831Z,8.96
2023-02-03T13:54:00.063Z,8.21
2023-02-03T13:56:32.975Z,9.22
2023-02-03T13:59:05.232Z,9.17
2023-02-03T14:01:37.485Z,9.38
2023-02-03T14:04:09.171Z,9.03
2023-02-03T14:07:01.289Z,9.08
2023-02-03T14:09:42.308Z,9.23
2023-02-03T14:12:37.460Z,8.80
2023-02-03T14:15:24.060Z,9.22
2023-02-03T14:17:58.732Z,9.27
2023-02-03T14:20:59.527Z,9.16
2023-02-03T14:23:39.939Z,8.95
2023-02-03T14:26:25.554Z,9.04
2023-02-03T14:28:55.149Z,9.14
2023-02-03T14:31:26.516Z,9.19
2023-02-03T14:34:08.906Z,9.23
2023-02-03T14:36:45.560Z,8.75
2023-02-03T14:39:55.605Z,9.10
2023-02-03T14:42:46.555Z,9.22
2023-02-03T14:45:30.736Z,8.95
2023-02-03T14:48:13.376Z,9.03
2023-02-03T14:50:56.778Z,9.13
2023-02-03T14:53:47.241Z,8.92
2023-02-03T14:56:28.808Z,8.96
2023-02-03T14:59:05.879Z,7.89
2023-02-03T15:02:09.107Z,9.15
2023-02-03T15:04:38.389Z,8.83
2023-02-03T15:07:07.943Z,9.19
2023-02-03T15:09:43.702Z,9.02
2023-02-03T15:12:19.235Z,8.73
2023-02-03T15:14:50.465Z,8.83
2023-02-03T15:17:24.621Z,8.02
2023-02-03T15:19:57.107Z,9.06
2023-02-03T15:22:28.136Z,8.93
2023-02-03T15:25:00.493Z,8.92
2023-02-03T15:27:31.923Z,8.97
2023-02-03T15:30:16.624Z,8.80
2023-02-03T15:32:51.210Z,9.10
2023-02-03T15:35:22.597Z,7.84
2023-02-03T15:37:55.801Z,8.18
2023-02-03T15:40:34.463Z,9.14
2023-02-03T15:43:13.634Z,9.20
2023-02-03T15:45:49.470Z,8.99
2023-02-03T15:48:26.758Z,8.96
2023-02-03T15:51:02.028Z,8.88
2023-02-03T15:53:46.926Z,8.67
2023-02-03T15:56:26.621Z,8.88
2023-02-03T15:58:58.816Z,8.72
2023-02-03T16:01:29.707Z,8.88
2023-02-03T16:04:01.700Z,8.56
2023-02-03T16:06:38.518Z,8.39
2023-02-03T16:09:27.182Z,8.78
2023-02-03T16:12:15.971Z,8.68
2023-02-03T16:14:46.099Z,8.67
2023-02-03T16:17:39.427Z,8.79
2023-02-03T16:20:28.582Z,8.63
2023-02-03T16:23:19.647Z,8.73
2023-02-03T16:26:06.820Z,8.44
2023-02-03T16:28:55.940Z,8.68
2023-02-03T16:31:43.427Z,8.61
2023-02-03T16:34:35.123Z,8.52
2023-02-03T16:37:30.477Z,8.43
2023-02-03T16:40:18.256Z,8.67
2023-02-03T16:43:05.062Z,8.22
2023-02-03T16:45:52.177Z,8.26
2023-02-03T16:48:39.101Z,8.45
2023-02-03T16:51:15.943Z,7.43
2023-02-03T16:53:48.401Z,8.28
2023-02-03T16:56:20.572Z,8.28
2023-02-03T16:58:50.212Z,8.17
2023-02-03T17:01:21.957Z,5.45
2023-02-03T17:03:51.974Z,8.14
2023-02-03T17:06:23.072Z,8.10
2023-02-03T17:08:53.314Z,8.33
2023-02-03T17:11:24.960Z,8.08
2023-02-03T17:13:54.905Z,8.06
2023-02-03T17:16:26.667Z,8.04
2023-02-03T17:18:56.282Z,8.11
2023-02-03T17:21:29.921Z,8.14
2023-02-03T17:24:00.859Z,7.83
2023-02-03T17:26:30.393Z,8.14
2023-02-03T17:29:03.355Z,8.07
2023-02-03T17:31:33.625Z,8.07
2023-02-03T17:34:04.443Z,7.97
2023-02-03T17:36:35.180Z,7.97
2023-02-03T17:55:35.396Z,8.15
2023-02-03T17:58:05.210Z,8.08
2023-02-03T18:00:36.972Z,8.16
2023-02-03T18:03:07.098Z,8.10
2023-02-03T18:05:39.661Z,8.09
2023-02-03T18:08:16.371Z,8.21
2023-02-03T18:10:46.887Z,8.31
2023-02-03T18:13:16.332Z,8.35
2023-02-03T18:15:46.321Z,8.44
2023-02-03T18:18:17.854Z,8.47
2023-02-03T18:20:47.645Z,8.09
2023-02-03T18:23:19.974Z,8.30
2023-02-03T18:25:55.824Z,8.12
2023-02-03T18:28:27.417Z,7.93
2023-02-03T18:31:01.390Z,8.28
2023-02-03T18:33:31.324Z,8.32
2023-02-03T18:36:02.923Z,8.29
2023-02-03T18:38:35.155Z,8.24
2023-02-03T18:41:06.830Z,8.09
2023-02-03T18:43:37.272Z,8.21
2023-02-03T18:46:09.926Z,8.11
2023-02-03T18:48:39.307Z,8.11
2023-02-03T18:51:10.324Z,8.13
2023-02-03T18:53:41.067Z,8.25
2023-02-03T18:56:13.102Z,8.17
2023-02-03T18:58:42.776Z,8.47
2023-02-03T19:01:12.152Z,8.30
2023-02-03T19:03:46.143Z,8.24
2023-02-03T19:06:15.589Z,7.74
2023-02-03T19:08:47.073Z,8.21
2023-02-03T19:11:17.762Z,8.28
2023-02-03T19:13:47.080Z,8.52
2023-02-03T19:16:18.048Z,8.38
2023-02-03T19:18:47.824Z,8.39
2023-02-03T19:21:17.676Z,6.86
2023-02-03T19:23:48.468Z,8.19
2023-02-03T19:26:17.585Z,8.13
2023-02-03T19:28:47.133Z,8.34
2023-02-03T19:31:16.785Z,8.20
2023-02-03T19:33:46.212Z,8.28
2023-02-03T19:36:15.612Z,8.26
2023-02-03T19:38:44.998Z,8.19
2023-02-03T19:41:15.874Z,8.18
2023-02-03T19:43:47.515Z,8.24
2023-02-03T19:46:17.142Z,8.02
2023-02-03T19:48:46.410Z,7.94
2023-02-03T19:51:18.413Z,8.22
2023-02-03T19:53:47.986Z,8.21
2023-02-03T19:56:18.592Z,8.14
2023-02-03T19:58:52.109Z,8.12
2023-02-03T20:01:21.875Z,7.94
2023-02-03T20:03:51.676Z,8.09
2023-02-03T20:06:21.844Z,7.92
2023-02-03T20:08:50.952Z,7.97
2023-02-03T20:11:22.057Z,8.02
2023-02-03T20:13:52.008Z,8.04
2023-02-03T20:16:21.698Z,7.99
2023-02-03T20:18:50.882Z,7.79
2023-02-03T20:21:19.978Z,7.72
2023-02-03T20:23:49.794Z,7.80
2023-02-03T20:26:22.723Z,7.85
2023-02-03T20:28:52.616Z,7.95
2023-02-03T20:31:24.304Z,7.43
2023-02-03T20:33:56.520Z,7.57
2023-02-03T20:36:27.986Z,7.76
2023-02-03T20:38:57.182Z,7.85
2023-02-03T20:41:27.511Z,7.28
2023-02-03T20:43:56.594Z,7.91
2023-02-03T20:46:25.923Z,7.92
2023-02-03T20:48:56.113Z,7.94
2023-02-03T20:51:27.307Z,7.87
2023-02-03T20:53:56.724Z,7.79
2023-02-03T20:56:27.413Z,7.73
2023-02-03T20:58:56.525Z,7.72
2023-02-03T21:01:26.451Z,7.74
2023-02-03T21:04:13.845Z,7.82
2023-02-03T21:06:43.974Z,7.51
2023-02-03T21:09:16.584Z,7.68
2023-02-03T21:11:47.582Z,7.54
2023-02-03T21:14:20.698Z,7.68
2023-02-03T21:16:50.970Z,7.44
2023-02-03T21:19:29.309Z,7.56
2023-02-03T21:21:59.679Z,7.73
2023-02-03T21:24:31.218Z,7.54
2023-02-03T21:27:03.070Z,7.58
2023-02-03T21:29:35.070Z,7.45
2023-02-03T21:32:05.412Z,7.55
2023-02-03T21:34:37.719Z,7.76
2023-02-03T21:37:31.134Z,7.46
2023-02-03T21:40:01.224Z,7.55
2023-02-03T21:42:42.943Z,7.45
2023-02-03T21:45:37.242Z,7.82
2023-02-03T21:48:32.193Z,7.82
2023-02-03T21:51:03.468Z,7.50
2023-02-03T21:53:36.346Z,7.75
2023-02-03T21:56:18.433Z,7.37
2023-02-03T21:58:51.120Z,7.19
2023-02-03T22:01:26.306Z,7.83
2023-02-03T22:04:00.042Z,7.87
2023-02-03T22:06:30.353Z,7.53
2023-02-03T22:09:00.581Z,7.64
2023-02-03T22:11:31.696Z,7.55
2023-02-03T22:14:02.781Z,7.21
2023-02-03T22:16:33.117Z,7.10
2023-02-03T22:19:02.607Z,7.04
2023-02-03T22:21:32.198Z,6.89
2023-02-03T22:24:01.796Z,7.29
2023-02-03T22:26:31.499Z,7.22
2023-02-03T22:29:03.212Z,7.17
2023-02-03T22:31:32.937Z,7.31
2023-02-03T22:34:05.009Z,7.02
2023-02-03T22:36:38.076Z,6.87
2023-02-03T22:39:07.922Z,7.03
2023-02-03T22:41:37.673Z,7.11
2023-02-03T22:44:08.969Z,7.15
2023-02-03T22:46:37.998Z,7.15
2023-02-03T22:49:08.090Z,7.22
2023-02-03T22:51:37.696Z,7.00
2023-02-03T22:54:07.426Z,7.18
2023-02-03T22:56:36.931Z,7.10
2023-02-03T22:59:08.327Z,7.15
2023-02-03T23:01:37.866Z,7.08
2023-02-03T23:04:07.800Z,7.22
2023-02-03T23:06:37.621Z,7.28
2023-02-03T23:09:07.297Z,7.18
2023-02-03T23:11:36.616Z,7.06
2023-02-03T23:14:11.672Z,7.11
2023-02-03T23:16:41.431Z,7.43
2023-02-03T23:19:11.548Z,7.44
2023-02-03T23:21:41.242Z,7.20
2023-02-03T23:24:11.042Z,6.96
2023-02-03T23:26:41.088Z,7.09
2023-02-03T23:29:12.684Z,7.06
2023-02-03T23:31:42.805Z,6.98
2023-02-03T23:34:30.562Z,6.98
2023-02-03T23:37:01.700Z,6.93
2023-02-03T23:39:31.761Z,6.83
2023-02-03T23:42:01.762Z,6.91
2023-02-03T23:44:32.512Z,7.02
2023-02-03T23:47:04.313Z,7.06
2023-02-03T23:49:33.879Z,7.10
2023-02-03T23:52:04.347Z,7.33
2023-02-03T23:54:34.184Z,7.16
2023-02-03T23:57:04.953Z,6.79
2023-02-03T23:59:35.810Z,6.84
